Time;durP1;ratioP1;P1;durP2;ratioP2;P2;SDS_P1;SDS_P2;PMS_P1;PMS_P2;Temp;Humidity;BMP_temperature;BMP_pressure;BME280_temperature;BME280_humidity;BME280_pressure;Samples;Min_cycle;Max_cycle;Signal;HPM_P1;HPM_P2
2022/11/09 00:01:15;;;;;;;;;;;12.70;99.90;;;;;;5047235;28;19924;-80
2022/11/09 00:03:40;;;;;;;;;;;12.70;99.90;;;;;;5040191;28;19952;-81
2022/11/09 00:06:06;;;;;;;;;;;12.70;99.90;;;;;;5044567;28;20015;-82
2022/11/09 00:08:31;;;;;;;;;;;12.70;99.90;;;;;;5050729;28;19913;-81
2022/11/09 00:11:04;;;;;;;;;;;12.70;99.90;;;;;;5060784;28;19916;-81
2022/11/09 00:13:29;;;;;;;;;;;12.70;99.90;;;;;;5047070;28;19948;-81
2022/11/09 00:16:03;;;;;;;;;;;12.70;99.90;;;;;;5043712;28;19948;-85
2022/11/09 00:18:29;;;;;;;;;;;12.70;99.90;;;;;;5046057;28;19913;-81
2022/11/09 00:20:54;;;;;;;;;;;12.70;99.90;;;;;;5047200;28;20066;-82
2022/11/09 00:23:20;;;;;;;;;;;12.70;99.90;;;;;;5043024;28;19923;-82
2022/11/09 00:25:46;;;;;;;;;;;12.70;99.90;;;;;;5048557;28;19966;-81
2022/11/09 00:28:12;;;;;;;;;;;12.70;99.90;;;;;;5050839;28;19913;-79
2022/11/09 00:30:37;;;;;;;;;;;12.70;99.90;;;;;;5046543;28;20015;-82
2022/11/09 00:33:02;;;;;;;;;;;12.70;99.90;;;;;;5043994;28;19920;-81
2022/11/09 00:35:28;;;;;;;;;;;12.70;99.90;;;;;;5047954;28;19920;-81
2022/11/09 00:37:53;;;;;;;;;;;12.60;99.90;;;;;;5042215;28;19917;-81
2022/11/09 00:40:19;;;;;;;;;;;12.60;99.90;;;;;;5038195;28;19963;-80
2022/11/09 00:42:44;;;;;;;;;;;12.70;99.90;;;;;;5046114;28;19917;-80
2022/11/09 00:45:10;;;;;;;;;;;12.70;99.90;;;;;;5054570;28;19916;-78
2022/11/09 00:47:35;;;;;;;;;;;12.80;99.90;;;;;;5046688;28;20273;-81
2022/11/09 00:50:01;;;;;;;;;;;12.80;99.90;;;;;;5049060;28;19916;-82
2022/11/09 00:52:26;;;;;;;;;;;12.80;99.90;;;;;;5045088;28;19982;-83
2022/11/09 00:54:51;;;;;;;;;;;12.70;99.90;;;;;;5057249;28;19919;-82
2022/11/09 00:57:17;;;;;;;;;;;12.70;99.90;;;;;;5049991;28;19913;-81
2022/11/09 00:59:42;;;;;;;;;;;12.60;99.90;;;;;;5044970;28;19962;-81
2022/11/09 01:02:08;;;;;;;;;;;12.60;99.90;;;;;;5052374;28;19917;-81
2022/11/09 01:04:33;;;;;;;;;;;12.70;99.90;;;;;;5050986;28;20278;-81
2022/11/09 01:06:58;;;;;;;;;;;12.60;99.90;;;;;;5049196;28;19957;-81
2022/11/09 01:09:24;;;;;;;;;;;12.50;99.90;;;;;;5047224;28;19985;-81
2022/11/09 01:11:49;;;;;;;;;;;12.60;99.90;;;;;;5046017;28;20378;-81
2022/11/09 01:14:15;;;;;;;;;;;12.50;99.90;;;;;;5054090;28;20547;-82
2022/11/09 01:16:40;;;;;;;;;;;12.40;99.90;;;;;;5045242;28;19935;-81
2022/11/09 01:19:05;;;;;;;;;;;12.40;99.90;;;;;;5053677;28;19913;-82
2022/11/09 01:21:31;;;;;;;;;;;12.30;99.90;;;;;;5048887;28;19921;-82
2022/11/09 01:23:57;;;;;;;;;;;12.30;99.90;;;;;;5048500;28;20485;-81
2022/11/09 01:26:23;;;;;;;;;;;12.20;99.90;;;;;;5047188;28;19912;-81
2022/11/09 01:28:48;;;;;;;;;;;12.20;99.90;;;;;;5053949;28;19988;-82
2022/11/09 01:31:15;;;;;;;;;;;12.20;99.90;;;;;;5029249;28;20422;-81
2022/11/09 01:33:41;;;;;;;;;;;12.20;99.90;;;;;;5046392;28;19921;-82
2022/11/09 01:36:08;;;;;;;;;;;12.20;99.90;;;;;;5047686;28;19912;-82
2022/11/09 01:38:34;;;;;;;;;;;12.20;99.90;;;;;;5038606;28;20351;-81
2022/11/09 01:41:00;;;;;;;;;;;12.20;99.90;;;;;;5056787;28;19921;-82
2022/11/09 01:43:25;;;;;;;;;;;12.20;99.90;;;;;;5049648;28;19971;-81
2022/11/09 01:45:54;;;;;;;;;;;12.20;99.90;;;;;;5055363;28;20000;-82
2022/11/09 01:48:31;;;;;;;;;;;12.20;99.90;;;;;;5047247;28;19913;-82
2022/11/09 01:51:00;;;;;;;;;;;12.20;99.90;;;;;;5046130;28;19940;-80
2022/11/09 01:53:28;;;;;;;;;;;12.10;99.90;;;;;;5046672;28;19912;-81
2022/11/09 01:55:55;;;;;;;;;;;12.00;99.90;;;;;;5046882;28;20731;-81
2022/11/09 01:58:23;;;;;;;;;;;11.90;99.90;;;;;;5050383;28;20022;-81
2022/11/09 02:00:49;;;;;;;;;;;11.80;99.90;;;;;;5051569;28;19994;-80
2022/11/09 02:03:20;;;;;;;;;;;11.80;99.90;;;;;;5053311;28;19920;-81
2022/11/09 02:05:47;;;;;;;;;;;11.70;99.90;;;;;;5049994;28;19978;-79
2022/11/09 02:08:14;;;;;;;;;;;11.80;99.90;;;;;;5045888;28;19913;-81
2022/11/09 02:10:44;;;;;;;;;;;11.70;99.90;;;;;;5044503;28;19923;-82
2022/11/09 02:13:11;;;;;;;;;;;11.70;99.90;;;;;;5041885;28;19916;-81
2022/11/09 02:15:37;;;;;;;;;;;11.60;99.90;;;;;;5047849;28;20373;-81
2022/11/09 02:18:02;;;;;;;;;;;11.40;99.90;;;;;;5046896;28;19925;-82
2022/11/09 02:20:28;;;;;;;;;;;11.40;99.90;;;;;;5057179;28;19916;-83
2022/11/09 02:22:53;;;;;;;;;;;11.20;99.90;;;;;;5047246;28;20707;-82
2022/11/09 02:25:19;;;;;;;;;;;11.20;99.90;;;;;;5044819;28;19939;-82
2022/11/09 02:27:45;;;;;;;;;;;11.10;99.90;;;;;;5050004;28;19920;-82
2022/11/09 02:30:11;;;;;;;;;;;11.00;99.90;;;;;;5046820;28;19913;-82
2022/11/09 02:32:36;;;;;;;;;;;11.00;99.90;;;;;;5050041;28;19920;-82
2022/11/09 02:35:02;;;;;;;;;;;11.00;99.90;;;;;;5047370;28;19916;-82
2022/11/09 02:37:28;;;;;;;;;;;10.90;99.90;;;;;;5051116;28;19966;-82
2022/11/09 02:39:55;;;;;;;;;;;11.00;99.90;;;;;;5044978;28;20000;-81
2022/11/09 02:42:20;;;;;;;;;;;11.00;99.90;;;;;;5049862;28;19917;-82
2022/11/09 02:44:48;;;;;;;;;;;10.90;99.90;;;;;;5042237;28;19921;-81
2022/11/09 02:47:13;;;;;;;;;;;10.90;99.90;;;;;;5050652;28;19916;-81
2022/11/09 02:49:39;;;;;;;;;;;11.00;99.90;;;;;;5051798;28;20367;-82
2022/11/09 02:52:04;;;;;;;;;;;11.20;99.90;;;;;;5050767;28;19991;-82
2022/11/09 02:54:30;;;;;;;;;;;11.20;99.90;;;;;;5042087;28;20486;-83
2022/11/09 02:56:56;;;;;;;;;;;11.30;99.90;;;;;;5045799;28;20441;-81
2022/11/09 02:59:21;;;;;;;;;;;11.30;99.90;;;;;;5043885;28;19995;-83
2022/11/09 03:01:47;;;;;;;;;;;11.40;99.90;;;;;;5045251;28;20386;-82
2022/11/09 03:04:12;;;;;;;;;;;11.30;99.90;;;;;;5046953;28;19920;-82
2022/11/09 03:06:37;;;;;;;;;;;11.40;99.90;;;;;;5040792;28;19917;-82
2022/11/09 03:09:05;;;;;;;;;;;11.50;99.90;;;;;;5045445;28;19913;-81
2022/11/09 03:11:30;;;;;;;;;;;11.60;99.90;;;;;;5047338;28;19952;-81
2022/11/09 03:13:56;;;;;;;;;;;11.70;99.90;;;;;;5044205;28;19940;-83
2022/11/09 03:16:22;;;;;;;;;;;11.70;99.90;;;;;;5046315;28;20913;-82
2022/11/09 03:18:47;;;;;;;;;;;11.70;99.90;;;;;;5044767;28;19941;-82
2022/11/09 03:21:13;;;;;;;;;;;11.70;99.90;;;;;;5047211;28;19921;-81
2022/11/09 03:23:38;;;;;;;;;;;11.80;99.90;;;;;;5046492;28;20371;-81
2022/11/09 03:26:04;;;;;;;;;;;11.90;99.90;;;;;;5048748;28;20000;-80
2022/11/09 03:28:29;;;;;;;;;;;11.90;99.90;;;;;;5048700;28;19920;-82
2022/11/09 03:30:55;;;;;;;;;;;11.90;99.90;;;;;;5048203;28;19913;-80
2022/11/09 03:33:20;;;;;;;;;;;11.90;99.90;;;;;;5049408;28;19921;-80
2022/11/09 03:35:46;;;;;;;;;;;11.90;99.90;;;;;;5044293;28;19917;-81
2022/11/09 03:38:12;;;;;;;;;;;12.00;99.90;;;;;;5043648;28;19920;-81
2022/11/09 03:40:37;;;;;;;;;;;12.00;99.90;;;;;;5048741;28;19913;-81
2022/11/09 03:43:03;;;;;;;;;;;12.00;99.90;;;;;;5039932;28;20283;-81
2022/11/09 03:45:29;;;;;;;;;;;12.00;99.90;;;;;;5046758;28;20439;-81
2022/11/09 03:47:59;;;;;;;;;;;12.00;99.90;;;;;;5045950;28;19920;-80
2022/11/09 03:50:25;;;;;;;;;;;12.00;99.90;;;;;;5043959;28;20288;-81
2022/11/09 03:52:51;;;;;;;;;;;12.00;99.90;;;;;;5041977;28;19913;-81
2022/11/09 03:55:17;;;;;;;;;;;12.10;99.90;;;;;;5041129;28;20363;-80
2022/11/09 03:57:43;;;;;;;;;;;12.10;99.90;;;;;;5052616;28;19919;-81
2022/11/09 04:00:08;;;;;;;;;;;12.30;99.90;;;;;;5053331;28;19913;-80
2022/11/09 04:02:34;;;;;;;;;;;12.30;99.90;;;;;;5050842;28;20390;-82
2022/11/09 04:04:59;;;;;;;;;;;12.30;99.90;;;;;;5040861;28;19914;-82
2022/11/09 04:07:25;;;;;;;;;;;12.30;99.90;;;;;;5051207;28;19950;-81
2022/11/09 04:09:50;;;;;;;;;;;12.40;99.90;;;;;;5043218;28;19963;-82
2022/11/09 04:12:15;;;;;;;;;;;12.40;99.90;;;;;;5044325;28;19913;-82
2022/11/09 04:14:41;;;;;;;;;;;12.40;99.90;;;;;;5042964;28;19920;-81
2022/11/09 04:17:06;;;;;;;;;;;12.30;99.90;;;;;;5043264;28;19939;-82
2022/11/09 04:19:32;;;;;;;;;;;12.30;99.90;;;;;;5042734;28;19919;-82
2022/11/09 04:21:57;;;;;;;;;;;12.30;99.90;;;;;;5048139;28;19928;-81
2022/11/09 04:24:23;;;;;;;;;;;12.30;99.90;;;;;;5046363;28;19912;-82
2022/11/09 04:26:48;;;;;;;;;;;12.40;99.90;;;;;;5048144;28;19924;-84
2022/11/09 04:29:13;;;;;;;;;;;12.40;99.90;;;;;;5045865;28;19920;-79
2022/11/09 04:31:39;;;;;;;;;;;12.30;99.90;;;;;;5049238;28;19909;-79
2022/11/09 04:34:04;;;;;;;;;;;12.30;99.90;;;;;;5046080;28;20000;-79
2022/11/09 04:36:30;;;;;;;;;;;12.40;99.90;;;;;;5041885;28;19920;-80
2022/11/09 04:38:55;;;;;;;;;;;12.40;99.90;;;;;;5046575;28;20340;-81
2022/11/09 04:41:21;;;;;;;;;;;12.30;99.90;;;;;;5054594;28;19935;-80
2022/11/09 04:43:46;;;;;;;;;;;12.30;99.90;;;;;;5047562;28;19962;-75
2022/11/09 04:46:12;;;;;;;;;;;12.20;99.90;;;;;;5045656;28;19958;-76
2022/11/09 04:48:37;;;;;;;;;;;12.30;99.90;;;;;;5048559;28;20300;-78
2022/11/09 04:51:04;;;;;;;;;;;12.30;99.90;;;;;;5050795;28;19952;-78
2022/11/09 04:53:30;;;;;;;;;;;12.30;99.90;;;;;;5050015;28;19917;-78
2022/11/09 04:55:55;;;;;;;;;;;12.30;99.90;;;;;;5048103;28;19921;-78
2022/11/09 04:58:21;;;;;;;;;;;12.40;99.90;;;;;;5048183;28;19912;-79
2022/11/09 05:00:47;;;;;;;;;;;12.40;99.90;;;;;;5032254;28;19920;-81
2022/11/09 05:03:13;;;;;;;;;;;12.30;99.90;;;;;;5047973;28;19917;-80
2022/11/09 05:05:39;;;;;;;;;;;12.40;99.90;;;;;;5049254;28;20095;-82
2022/11/09 05:08:05;;;;;;;;;;;12.40;99.90;;;;;;5047259;28;19916;-80
2022/11/09 05:10:31;;;;;;;;;;;12.40;99.90;;;;;;5049060;28;20397;-80
2022/11/09 05:12:57;;;;;;;;;;;12.50;99.90;;;;;;5049849;28;19913;-81
2022/11/09 05:15:22;;;;;;;;;;;12.50;99.90;;;;;;5048090;28;20011;-76
2022/11/09 05:17:48;;;;;;;;;;;12.50;99.90;;;;;;5044070;28;20003;-76
2022/11/09 05:20:13;;;;;;;;;;;12.50;99.90;;;;;;5034006;28;20554;-76
2022/11/09 05:25:23;;;;;;;;;;;12.50;99.90;;;;;;5040456;28;20002;-77
2022/11/09 05:27:48;;;;;;;;;;;12.50;99.90;;;;;;5038671;28;20323;-79
2022/11/09 05:30:14;;;;;;;;;;;12.50;99.90;;;;;;5038527;28;19921;-77
2022/11/09 05:32:39;;;;;;;;;;;12.50;99.90;;;;;;5037992;28;19917;-77
2022/11/09 05:35:05;;;;;;;;;;;12.40;99.90;;;;;;5039671;28;20007;-76
2022/11/09 05:37:31;;;;;;;;;;;12.40;99.90;;;;;;5038667;28;19940;-76
2022/11/09 05:39:56;;;;;;;;;;;12.40;99.90;;;;;;5036323;28;19971;-78
2022/11/09 05:42:24;;;;;;;;;;;12.50;99.90;;;;;;5038930;28;19978;-77
2022/11/09 05:44:50;;;;;;;;;;;12.50;99.90;;;;;;5039898;28;20036;-77
2022/11/09 05:47:15;;;;;;;;;;;12.50;99.90;;;;;;5038086;28;19987;-76
2022/11/09 05:49:41;;;;;;;;;;;12.50;99.90;;;;;;5039076;28;20351;-77
2022/11/09 05:52:06;;;;;;;;;;;12.50;99.90;;;;;;5037026;28;19912;-80
2022/11/09 05:54:31;;;;;;;;;;;12.50;99.90;;;;;;5038625;28;20360;-77
2022/11/09 05:56:57;;;;;;;;;;;12.50;99.90;;;;;;5038561;28;19976;-77
2022/11/09 05:59:22;;;;;;;;;;;12.50;99.90;;;;;;5038477;28;19927;-78
2022/11/09 06:01:48;;;;;;;;;;;12.40;99.90;;;;;;5038569;28;19943;-77
2022/11/09 06:04:13;;;;;;;;;;;12.50;99.90;;;;;;5036406;28;19967;-77
2022/11/09 06:06:38;;;;;;;;;;;12.50;99.90;;;;;;5037453;28;19914;-78
2022/11/09 06:09:04;;;;;;;;;;;12.50;99.90;;;;;;5038487;28;19913;-78
2022/11/09 06:11:29;;;;;;;;;;;12.50;99.90;;;;;;5033653;28;19916;-78
2022/11/09 06:13:55;;;;;;;;;;;12.40;99.90;;;;;;5032450;28;19921;-78
2022/11/09 06:16:20;;;;;;;;;;;12.40;99.90;;;;;;5033137;28;19917;-78
2022/11/09 06:18:46;;;;;;;;;;;12.50;99.90;;;;;;5044034;28;20323;-78
2022/11/09 06:21:34;;;;;;;;;;;12.50;99.90;;;;;;5044912;28;19936;-78
2022/11/09 06:24:00;;;;;;;;;;;12.60;99.90;;;;;;5038002;28;19916;-80
2022/11/09 06:26:25;;;;;;;;;;;12.50;99.90;;;;;;5044797;28;19917;-78
2022/11/09 06:28:51;;;;;;;;;;;12.50;99.90;;;;;;5045783;28;20378;-77
2022/11/09 06:31:16;;;;;;;;;;;12.60;99.90;;;;;;5042633;28;20359;-76
2022/11/09 06:36:37;;;;;;;;;;;12.60;99.90;;;;;;5014858;28;19917;-76
2022/11/09 06:39:02;;;;;;;;;;;12.60;99.90;;;;;;5047233;28;19915;-77
2022/11/09 06:41:28;;;;;;;;;;;12.70;99.90;;;;;;5047387;28;20003;-77
2022/11/09 06:43:53;;;;;;;;;;;12.70;99.90;;;;;;5043608;28;19944;-75
2022/11/09 06:46:19;;;;;;;;;;;12.60;99.90;;;;;;5048162;28;20346;-76
2022/11/09 06:48:45;;;;;;;;;;;12.70;99.90;;;;;;5047896;28;19909;-78
2022/11/09 06:51:11;;;;;;;;;;;12.60;99.90;;;;;;5048266;28;19913;-77
2022/11/09 06:53:38;;;;;;;;;;;12.60;99.90;;;;;;5044373;28;19913;-77
2022/11/09 06:56:04;;;;;;;;;;;12.50;99.90;;;;;;5047943;28;19913;-77
2022/11/09 06:58:29;;;;;;;;;;;12.50;99.90;;;;;;5047635;28;19909;-77
2022/11/09 07:00:55;;;;;;;;;;;12.50;99.90;;;;;;5047810;28;19960;-76
2022/11/09 07:03:21;;;;;;;;;;;12.50;99.90;;;;;;5046626;28;19913;-78
2022/11/09 07:05:47;;;;;;;;;;;12.50;99.90;;;;;;5045287;28;19914;-77
2022/11/09 07:08:13;;;;;;;;;;;12.40;99.90;;;;;;5047865;28;19905;-78
2022/11/09 07:10:39;;;;;;;;;;;12.30;99.90;;;;;;5039658;28;20662;-79
2022/11/09 07:13:05;;;;;;;;;;;12.30;99.90;;;;;;5044822;28;20401;-78
2022/11/09 07:15:30;;;;;;;;;;;12.20;99.90;;;;;;5039505;28;19989;-79
2022/11/09 07:17:56;;;;;;;;;;;12.30;99.90;;;;;;5047899;28;19920;-76
2022/11/09 07:20:22;;;;;;;;;;;12.30;99.90;;;;;;5034900;28;19964;-78
2022/11/09 07:22:48;;;;;;;;;;;12.30;99.90;;;;;;5046032;28;19997;-75
2022/11/09 07:25:13;;;;;;;;;;;12.20;99.90;;;;;;5036429;28;20344;-76
2022/11/09 07:27:38;;;;;;;;;;;12.10;99.90;;;;;;5044225;28;19954;-77
2022/11/09 07:30:04;;;;;;;;;;;12.10;99.90;;;;;;5046092;28;20248;-77
2022/11/09 07:32:33;;;;;;;;;;;12.00;99.90;;;;;;5042062;28;20417;-77
2022/11/09 07:34:58;;;;;;;;;;;11.90;99.90;;;;;;5045715;28;19917;-77
2022/11/09 07:37:24;;;;;;;;;;;12.00;99.90;;;;;;5047465;28;19911;-77
2022/11/09 07:39:49;;;;;;;;;;;12.10;99.90;;;;;;5044188;28;20355;-77
2022/11/09 07:42:15;;;;;;;;;;;12.10;99.90;;;;;;5045795;28;19916;-77
2022/11/09 07:44:40;;;;;;;;;;;12.10;99.90;;;;;;5041834;28;19908;-79
2022/11/09 07:47:05;;;;;;;;;;;12.10;99.90;;;;;;5042748;28;19928;-75
2022/11/09 07:49:37;;;;;;;;;;;12.20;99.90;;;;;;5045625;28;19909;-75
2022/11/09 07:52:02;;;;;;;;;;;12.10;99.90;;;;;;5042299;28;19916;-74
2022/11/09 07:54:27;;;;;;;;;;;12.30;99.90;;;;;;5049021;28;19920;-76
2022/11/09 07:56:53;;;;;;;;;;;12.30;99.90;;;;;;5050631;28;19913;-76
2022/11/09 07:59:18;;;;;;;;;;;12.30;99.90;;;;;;5050483;28;19955;-74
2022/11/09 08:01:44;;;;;;;;;;;12.40;99.90;;;;;;5050142;28;19913;-75
2022/11/09 08:04:09;;;;;;;;;;;12.50;99.90;;;;;;5047964;28;19919;-75
2022/11/09 08:06:35;;;;;;;;;;;12.50;99.90;;;;;;5050311;28;20260;-74
2022/11/09 08:09:00;;;;;;;;;;;12.50;99.90;;;;;;5046350;28;19916;-74
2022/11/09 08:11:26;;;;;;;;;;;12.50;99.90;;;;;;5046647;28;19963;-75
2022/11/09 08:13:51;;;;;;;;;;;12.50;99.90;;;;;;5048380;28;19913;-75
2022/11/09 08:16:17;;;;;;;;;;;12.60;99.90;;;;;;5047854;28;20382;-76
2022/11/09 08:18:42;;;;;;;;;;;12.60;99.90;;;;;;5044150;28;20382;-74
2022/11/09 08:21:08;;;;;;;;;;;12.60;99.90;;;;;;5054005;28;19962;-74
2022/11/09 08:23:33;;;;;;;;;;;12.50;99.90;;;;;;5032068;28;19917;-75
2022/11/09 08:26:03;;;;;;;;;;;12.40;99.90;;;;;;5047178;28;20011;-75
2022/11/09 08:28:28;;;;;;;;;;;12.40;99.90;;;;;;5043239;28;19908;-72
2022/11/09 08:30:59;;;;;;;;;;;12.40;99.90;;;;;;5044425;28;19924;-74
2022/11/09 08:33:26;;;;;;;;;;;12.40;99.90;;;;;;5056152;28;19917;-71
2022/11/09 08:35:52;;;;;;;;;;;12.50;99.90;;;;;;5050884;28;20003;-73
2022/11/09 08:38:17;;;;;;;;;;;12.60;99.90;;;;;;5049532;28;20003;-74
2022/11/09 08:40:42;;;;;;;;;;;12.60;99.90;;;;;;5039524;28;20007;-79
2022/11/09 08:43:09;;;;;;;;;;;12.60;99.90;;;;;;5054864;28;19920;-76
2022/11/09 08:45:35;;;;;;;;;;;12.70;99.90;;;;;;5063159;28;20363;-76
2022/11/09 08:48:01;;;;;;;;;;;12.70;99.90;;;;;;5049469;28;20020;-75
2022/11/09 08:50:27;;;;;;;;;;;12.70;99.90;;;;;;5048993;28;20000;-75
2022/11/09 08:52:52;;;;;;;;;;;12.60;99.90;;;;;;5048689;28;20002;-76
2022/11/09 08:55:18;;;;;;;;;;;12.50;99.90;;;;;;5056847;28;19995;-75
2022/11/09 08:57:43;;;;;;;;;;;12.60;99.90;;;;;;5043530;28;20582;-76
2022/11/09 09:00:09;;;;;;;;;;;12.50;99.90;;;;;;5046326;28;19991;-75
2022/11/09 09:02:34;;;;;;;;;;;12.50;99.90;;;;;;5050193;28;19923;-76
2022/11/09 09:05:00;;;;;;;;;;;12.50;99.90;;;;;;5048422;28;19916;-75
2022/11/09 09:07:25;;;;;;;;;;;12.60;99.90;;;;;;5060728;28;20287;-75
2022/11/09 09:09:50;;;;;;;;;;;12.70;99.90;;;;;;5051167;28;20295;-76
2022/11/09 09:12:16;;;;;;;;;;;12.70;99.90;;;;;;5040155;28;20346;-75
2022/11/09 09:14:41;;;;;;;;;;;12.80;99.90;;;;;;5049588;28;19915;-75
2022/11/09 09:17:07;;;;;;;;;;;12.70;99.90;;;;;;5039485;28;19924;-73
2022/11/09 09:19:33;;;;;;;;;;;12.80;99.90;;;;;;5055418;28;20299;-73
2022/11/09 09:21:59;;;;;;;;;;;12.90;99.90;;;;;;5036384;28;19921;-73
2022/11/09 09:24:25;;;;;;;;;;;13.00;99.90;;;;;;5039283;28;19975;-72
2022/11/09 09:26:51;;;;;;;;;;;13.10;99.90;;;;;;5039147;28;20409;-73
2022/11/09 09:29:16;;;;;;;;;;;13.20;99.90;;;;;;5046602;28;19948;-74
2022/11/09 09:31:41;;;;;;;;;;;13.30;99.90;;;;;;5044260;28;19913;-76
2022/11/09 09:34:07;;;;;;;;;;;13.40;99.90;;;;;;5027739;28;19928;-75
2022/11/09 09:36:34;;;;;;;;;;;13.70;99.90;;;;;;5033246;28;19955;-75
2022/11/09 09:39:00;;;;;;;;;;;13.90;99.90;;;;;;5037900;28;19983;-75
2022/11/09 09:41:34;;;;;;;;;;;13.90;99.90;;;;;;5038975;28;19913;-74
2022/11/09 09:44:06;;;;;;;;;;;13.90;99.90;;;;;;5041047;28;19917;-73
2022/11/09 09:46:41;;;;;;;;;;;13.80;99.90;;;;;;5030940;28;19913;-73
2022/11/09 09:49:16;;;;;;;;;;;13.70;99.90;;;;;;5047926;28;19912;-74
2022/11/09 09:52:01;;;;;;;;;;;13.60;99.90;;;;;;5043402;28;19917;-73
2022/11/09 09:54:32;;;;;;;;;;;13.40;99.90;;;;;;5014173;28;20102;-75
2022/11/09 09:56:59;;;;;;;;;;;13.30;99.90;;;;;;5035245;28;20561;-76
2022/11/09 09:59:32;;;;;;;;;;;13.30;99.90;;;;;;5040458;28;19909;-74
2022/11/09 10:01:57;;;;;;;;;;;13.30;99.90;;;;;;5042261;28;19923;-74
2022/11/09 10:04:26;;;;;;;;;;;13.40;99.90;;;;;;5039021;28;20192;-72
2022/11/09 10:07:11;;;;;;;;;;;13.50;99.90;;;;;;5038624;28;20390;-72
2022/11/09 10:09:44;;;;;;;;;;;13.60;99.90;;;;;;5033267;28;19919;-75
2022/11/09 10:12:21;;;;;;;;;;;13.70;99.90;;;;;;5046200;28;19916;-74
2022/11/09 10:14:53;;;;;;;;;;;13.70;99.90;;;;;;5043234;28;19913;-73
2022/11/09 10:17:37;;;;;;;;;;;13.70;99.90;;;;;;5044415;28;20017;-74
2022/11/09 10:20:15;;;;;;;;;;;13.80;99.90;;;;;;5047612;28;19920;-74
2022/11/09 10:22:59;;;;;;;;;;;13.70;99.90;;;;;;5030777;28;20328;-74
2022/11/09 10:25:26;;;;;;;;;;;13.90;99.90;;;;;;5042183;28;19955;-73
2022/11/09 10:27:54;;;;;;;;;;;14.00;99.90;;;;;;5028587;28;19924;-73
2022/11/09 10:30:20;;;;;;;;;;;13.90;99.90;;;;;;5040298;28;20054;-73
2022/11/09 10:32:49;;;;;;;;;;;13.90;99.90;;;;;;5048326;28;19909;-73
2022/11/09 10:35:17;;;;;;;;;;;13.90;99.90;;;;;;5046152;28;19909;-73
2022/11/09 10:37:45;;;;;;;;;;;14.20;99.90;;;;;;5043456;28;19987;-73
2022/11/09 10:40:11;;;;;;;;;;;14.60;99.90;;;;;;5046704;28;20777;-72
2022/11/09 10:42:36;;;;;;;;;;;15.00;99.90;;;;;;5048299;28;19992;-73
2022/11/09 10:45:20;;;;;;;;;;;15.40;99.90;;;;;;5048183;28;20257;-73
2022/11/09 10:47:47;;;;;;;;;;;16.70;99.90;;;;;;5043312;28;19995;-73
2022/11/09 10:50:20;;;;;;;;;;;17.20;99.90;;;;;;5041328;28;19917;-72
2022/11/09 10:52:45;;;;;;;;;;;17.50;99.90;;;;;;5044820;28;20425;-72
2022/11/09 10:55:15;;;;;;;;;;;20.40;94.70;;;;;;5047674;28;19913;-72
2022/11/09 10:57:55;;;;;;;;;;;21.00;89.10;;;;;;5047832;28;19916;-72
2022/11/09 11:00:21;;;;;;;;;;;20.00;90.90;;;;;;5046563;28;19909;-73
2022/11/09 11:02:47;;;;;;;;;;;20.20;90.60;;;;;;5043070;28;19923;-72
2022/11/09 11:05:15;;;;;;;;;;;19.90;89.30;;;;;;5046179;28;19917;-72
2022/11/09 11:07:40;;;;;;;;;;;18.80;92.80;;;;;;5048114;28;19913;-72
2022/11/09 11:10:15;;;;;;;;;;;18.20;94.70;;;;;;5047525;28;19938;-72
2022/11/09 11:12:41;;;;;;;;;;;19.20;94.00;;;;;;5045373;28;20389;-73
2022/11/09 11:15:28;;;;;;;;;;;21.20;87.60;;;;;;5047191;28;19913;-73
2022/11/09 11:18:01;;;;;;;;;;;23.80;74.80;;;;;;5047311;28;20270;-73
2022/11/09 11:20:28;;;;;;;;;;;22.20;76.00;;;;;;5029937;28;19923;-73
2022/11/09 11:23:10;;;;;;;;;;;21.80;79.20;;;;;;5043435;28;19921;-74
2022/11/09 11:25:39;;;;;;;;;;;21.30;80.70;;;;;;5047581;28;19909;-74
2022/11/09 11:28:13;;;;;;;;;;;19.80;85.60;;;;;;5047334;28;19915;-73
2022/11/09 11:30:39;;;;;;;;;;;19.90;85.70;;;;;;5047229;28;19994;-72
2022/11/09 11:33:14;;;;;;;;;;;19.40;87.50;;;;;;5046218;28;19944;-72
2022/11/09 11:35:43;;;;;;;;;;;18.10;91.90;;;;;;5045327;28;19917;-73
2022/11/09 11:38:15;;;;;;;;;;;19.50;90.40;;;;;;5047453;28;19916;-73
2022/11/09 11:41:03;;;;;;;;;;;22.40;77.70;;;;;;5043518;28;19964;-73
2022/11/09 11:43:42;;;;;;;;;;;20.70;82.20;;;;;;5047281;28;20356;-72
2022/11/09 11:46:16;;;;;;;;;;;20.00;86.60;;;;;;5046968;28;19912;-73
2022/11/09 11:48:56;;;;;;;;;;;20.80;81.70;;;;;;5044986;28;20359;-73
2022/11/09 11:51:30;;;;;;;;;;;20.00;85.10;;;;;;5035833;28;20456;-73
2022/11/09 11:54:05;;;;;;;;;;;20.30;84.90;;;;;;5047230;28;19909;-74
2022/11/09 11:56:36;;;;;;;;;;;22.20;80.70;;;;;;5047529;28;20272;-73
2022/11/09 11:59:24;;;;;;;;;;;26.10;65.40;;;;;;5047513;28;19916;-73
2022/11/09 12:02:17;;;;;;;;;;;25.60;61.80;;;;;;5043981;28;19970;-72
2022/11/09 12:04:46;;;;;;;;;;;24.20;67.10;;;;;;5046140;28;19916;-73
2022/11/09 12:07:19;;;;;;;;;;;25.90;61.40;;;;;;5047285;28;19967;-73
2022/11/09 12:09:54;;;;;;;;;;;24.10;64.60;;;;;;5047128;28;19919;-73
2022/11/09 12:12:28;;;;;;;;;;;22.10;70.60;;;;;;5043820;28;20669;-73
2022/11/09 12:15:02;;;;;;;;;;;21.20;77.10;;;;;;5047097;28;19919;-72
2022/11/09 12:17:36;;;;;;;;;;;26.20;63.30;;;;;;5046901;28;20368;-73
2022/11/09 12:20:13;;;;;;;;;;;24.40;62.10;;;;;;5047505;28;19981;-73
2022/11/09 12:22:57;;;;;;;;;;;20.60;76.70;;;;;;5046025;28;19923;-72
2022/11/09 12:25:28;;;;;;;;;;;23.40;70.60;;;;;;5045894;28;19917;-74
2022/11/09 12:28:03;;;;;;;;;;;27.60;58.30;;;;;;5046425;28;19916;-73
2022/11/09 12:30:55;;;;;;;;;;;25.70;58.60;;;;;;5046835;28;19928;-73
2022/11/09 12:33:39;;;;;;;;;;;21.70;71.20;;;;;;5042085;28;19912;-72
2022/11/09 12:36:12;;;;;;;;;;;19.50;80.80;;;;;;5039648;28;20000;-73
2022/11/09 12:38:41;;;;;;;;;;;18.40;87.50;;;;;;5041940;28;19913;-72
2022/11/09 12:41:08;;;;;;;;;;;19.80;84.10;;;;;;5047770;28;19932;-72
2022/11/09 12:43:46;;;;;;;;;;;19.70;84.20;;;;;;5047181;28;19917;-72
2022/11/09 12:46:12;;;;;;;;;;;19.10;87.00;;;;;;5050479;28;19916;-73
2022/11/09 12:48:38;;;;;;;;;;;21.30;81.50;;;;;;5050458;28;19909;-72
2022/11/09 12:51:05;;;;;;;;;;;23.60;69.70;;;;;;5050426;28;20617;-73
2022/11/09 12:53:34;;;;;;;;;;;23.80;69.40;;;;;;5048284;28;19913;-72
2022/11/09 12:56:02;;;;;;;;;;;22.80;71.40;;;;;;5050317;28;19909;-73
2022/11/09 12:58:29;;;;;;;;;;;23.60;69.10;;;;;;5050476;28;19952;-72
2022/11/09 13:00:56;;;;;;;;;;;23.50;68.50;;;;;;5050544;28;19979;-73
2022/11/09 13:03:23;;;;;;;;;;;21.30;74.50;;;;;;5046590;28;19921;-72
2022/11/09 13:06:07;;;;;;;;;;;20.30;80.00;;;;;;5044588;28;19942;-72
2022/11/09 13:08:32;;;;;;;;;;;19.50;82.90;;;;;;5049948;28;19909;-72
2022/11/09 13:11:08;;;;;;;;;;;18.80;87.10;;;;;;5050083;28;20363;-72
2022/11/09 13:13:34;;;;;;;;;;;18.70;88.80;;;;;;5050285;28;19909;-73
2022/11/09 13:16:31;;;;;;;;;;;18.70;89.10;;;;;;5048298;28;19936;-72
2022/11/09 13:18:56;;;;;;;;;;;18.70;89.40;;;;;;5042643;28;19995;-72
2022/11/09 13:21:22;;;;;;;;;;;18.00;90.90;;;;;;5049650;28;20032;-73
2022/11/09 13:23:53;;;;;;;;;;;17.60;92.60;;;;;;5049751;28;19913;-72
2022/11/09 13:26:31;;;;;;;;;;;17.40;93.40;;;;;;5048314;28;19913;-72
2022/11/09 13:29:15;;;;;;;;;;;17.20;94.50;;;;;;5048477;28;20083;-72
2022/11/09 13:31:59;;;;;;;;;;;17.20;95.20;;;;;;5044018;28;19917;-72
2022/11/09 13:34:44;;;;;;;;;;;17.10;95.50;;;;;;5049439;28;19917;-73
2022/11/09 13:37:28;;;;;;;;;;;17.00;96.40;;;;;;5049684;28;19909;-73
2022/11/09 13:39:54;;;;;;;;;;;16.90;97.00;;;;;;5049696;28;20034;-73
2022/11/09 13:42:24;;;;;;;;;;;16.80;97.40;;;;;;5046374;28;20019;-72
2022/11/09 13:44:50;;;;;;;;;;;16.60;98.20;;;;;;5049398;28;20378;-72
2022/11/09 13:47:20;;;;;;;;;;;16.70;98.50;;;;;;5049534;28;19985;-73
2022/11/09 13:49:47;;;;;;;;;;;16.60;98.90;;;;;;5049376;28;20310;-72
2022/11/09 13:52:31;;;;;;;;;;;16.30;99.90;;;;;;5045750;28;19971;-73
2022/11/09 13:54:56;;;;;;;;;;;16.30;99.90;;;;;;5045648;28;19920;-73
2022/11/09 13:57:23;;;;;;;;;;;16.20;99.90;;;;;;5049114;28;19909;-73
2022/11/09 13:59:48;;;;;;;;;;;16.00;99.90;;;;;;5048907;28;20414;-73
2022/11/09 14:02:18;;;;;;;;;;;15.80;99.90;;;;;;5049204;28;19913;-73
2022/11/09 14:04:44;;;;;;;;;;;15.70;99.90;;;;;;5045231;28;20413;-73
2022/11/09 14:07:21;;;;;;;;;;;15.60;99.90;;;;;;5049107;28;20019;-73
2022/11/09 14:09:53;;;;;;;;;;;15.50;99.90;;;;;;5048960;28;19908;-72
2022/11/09 14:12:37;;;;;;;;;;;15.40;99.90;;;;;;5048473;28;19909;-72
2022/11/09 14:15:28;;;;;;;;;;;15.40;99.90;;;;;;5048758;28;19967;-73
2022/11/09 14:18:00;;;;;;;;;;;15.40;99.90;;;;;;5010192;28;19963;-72
2022/11/09 14:20:25;;;;;;;;;;;15.40;99.90;;;;;;5038281;28;19961;-73
2022/11/09 14:22:51;;;;;;;;;;;15.40;99.90;;;;;;5043940;28;19952;-73
2022/11/09 14:25:21;;;;;;;;;;;15.40;99.90;;;;;;5048177;28;19916;-73
2022/11/09 14:27:56;;;;;;;;;;;15.40;99.90;;;;;;5048098;28;19909;-72